createdAt,value
2019-05-21T00:00:36.448Z,82.73
2019-05-21T00:03:05.743Z,87.00
2019-05-21T00:05:35.075Z,58.57
2019-05-21T00:08:04.380Z,67.63
2019-05-21T00:10:33.674Z,68.93
2019-05-21T00:13:02.983Z,61.10
2019-05-21T00:15:32.265Z,53.50
2019-05-21T00:18:01.858Z,48.10
2019-05-21T00:20:31.166Z,51.73
2019-05-21T00:23:00.462Z,63.93
2019-05-21T00:25:29.819Z,75.37
2019-05-21T00:28:23.644Z,59.17
2019-05-21T00:31:28.870Z,66.73
2019-05-21T00:34:43.623Z,59.30
2019-05-21T00:37:41.602Z,58.57
2019-05-21T00:40:46.793Z,108.90
2019-05-21T00:43:16.430Z,60.33
2019-05-21T00:45:46.790Z,49.23
2019-05-21T00:48:16.081Z,81.07
2019-05-21T00:50:45.421Z,57.57
2019-05-21T00:53:15.690Z,65.73
2019-05-21T00:55:45.015Z,102.37
2019-05-21T00:58:14.377Z,64.73
2019-05-21T01:00:43.794Z,101.23
2019-05-21T01:03:13.101Z,156.37
2019-05-21T01:05:42.449Z,139.07
2019-05-21T01:08:11.727Z,80.80
2019-05-21T01:10:41.026Z,107.37
2019-05-21T01:13:10.355Z,67.07
2019-05-21T01:15:39.720Z,53.17
2019-05-21T01:18:09.001Z,50.50
2019-05-21T01:20:38.280Z,46.20
2019-05-21T01:26:37.208Z,57.33
2019-05-21T01:29:08.522Z,55.17
2019-05-21T01:31:37.770Z,86.27
2019-05-21T01:34:07.138Z,109.83
2019-05-21T01:36:36.374Z,59.57
2019-05-21T01:39:06.490Z,79.30
2019-05-21T01:41:35.767Z,112.97
2019-05-21T01:44:05.305Z,63.63
2019-05-21T01:46:34.558Z,118.70
2019-05-21T01:49:03.952Z,67.37
2019-05-21T01:51:33.400Z,62.70
2019-05-21T01:54:02.680Z,95.47
2019-05-21T01:56:33.919Z,90.93
2019-05-21T01:59:03.643Z,66.10
2019-05-21T02:01:34.325Z,123.97
2019-05-21T02:04:03.604Z,65.87
2019-05-21T02:06:32.942Z,58.30
2019-05-21T02:09:03.172Z,87.63
2019-05-21T02:11:32.597Z,84.03
2019-05-21T02:14:01.891Z,52.00
2019-05-21T02:16:31.250Z,58.87
2019-05-21T02:19:00.527Z,57.37
2019-05-21T02:21:31.706Z,58.27
2019-05-21T02:24:00.969Z,59.83
2019-05-21T02:26:30.347Z,55.23
2019-05-21T02:28:59.662Z,51.77
2019-05-21T02:31:28.913Z,53.30
2019-05-21T02:33:58.270Z,67.90
2019-05-21T02:36:27.545Z,112.73
2019-05-21T02:38:57.970Z,64.30
2019-05-21T02:41:27.384Z,57.97
2019-05-21T02:43:57.755Z,128.73
2019-05-21T02:46:27.015Z,54.97
2019-05-21T02:48:56.299Z,58.97
2019-05-21T02:51:25.980Z,68.13
2019-05-21T02:53:55.326Z,59.93
2019-05-21T02:56:24.604Z,58.83
2019-05-21T02:58:54.907Z,68.83
2019-05-21T03:01:43.948Z,94.47
2019-05-21T03:04:13.295Z,136.50
2019-05-21T03:06:42.852Z,81.70
2019-05-21T03:09:12.165Z,69.07
2019-05-21T03:11:41.450Z,79.27
2019-05-21T03:14:10.737Z,68.87
2019-05-21T03:16:40.233Z,87.60
2019-05-21T03:19:09.521Z,190.83
2019-05-21T03:21:38.818Z,111.60
2019-05-21T03:24:08.147Z,66.73
2019-05-21T03:26:37.439Z,92.50
2019-05-21T03:29:06.811Z,74.30
2019-05-21T03:31:36.196Z,65.37
2019-05-21T03:34:05.446Z,65.97
2019-05-21T03:36:34.802Z,67.23
2019-05-21T03:39:05.733Z,73.17
2019-05-21T03:41:35.018Z,65.00
2019-05-21T03:44:04.415Z,79.57
2019-05-21T03:46:34.177Z,76.43
2019-05-21T03:49:04.757Z,76.67
2019-05-21T03:51:34.249Z,120.93
2019-05-21T03:54:03.564Z,123.27
2019-05-21T03:56:32.908Z,123.03
2019-05-21T03:59:02.307Z,57.63
2019-05-21T04:01:31.597Z,90.83
2019-05-21T04:04:01.035Z,49.97
2019-05-21T04:06:30.410Z,78.30
2019-05-21T04:09:01.653Z,77.57
2019-05-21T04:11:31.259Z,61.73
2019-05-21T04:14:00.572Z,51.63
2019-05-21T04:16:54.940Z,88.27
2019-05-21T04:19:27.915Z,62.87
2019-05-21T04:22:00.144Z,112.07
2019-05-21T04:24:29.402Z,66.67
2019-05-21T04:26:58.773Z,58.67
2019-05-21T04:29:28.043Z,59.07
2019-05-21T04:31:58.508Z,54.47
2019-05-21T04:34:29.250Z,64.67
2019-05-21T04:37:09.718Z,51.43
2019-05-21T04:39:29.745Z,53.67
2019-05-21T04:41:59.019Z,60.33
2019-05-21T04:44:28.353Z,51.87
2019-05-21T04:46:58.151Z,53.47
2019-05-21T04:49:29.052Z,52.50
2019-05-21T04:51:58.499Z,60.17
2019-05-21T04:54:28.228Z,43.73
2019-05-21T04:56:57.552Z,36.30
2019-05-21T04:59:27.055Z,24.07
2019-05-21T05:01:56.437Z,16.70
2019-05-21T05:04:25.874Z,14.27
2019-05-21T05:06:55.196Z,12.53
2019-05-21T05:09:24.674Z,11.83
2019-05-21T05:11:54.023Z,11.27
2019-05-21T05:14:23.643Z,11.37
2019-05-21T05:16:53.822Z,11.30
2019-05-21T05:19:23.067Z,11.57
2019-05-21T05:21:52.535Z,11.47
2019-05-21T05:24:21.943Z,10.73
2019-05-21T05:26:51.397Z,9.97
2019-05-21T05:29:23.590Z,11.67
2019-05-21T05:31:53.615Z,12.13
2019-05-21T05:34:23.203Z,8.90
2019-05-21T05:36:52.590Z,9.50
2019-05-21T05:39:21.817Z,10.33
2019-05-21T05:41:51.348Z,14.17
2019-05-21T05:44:22.656Z,10.57
2019-05-21T05:46:53.598Z,11.37
2019-05-21T05:49:28.767Z,10.73
2019-05-21T05:51:58.194Z,10.53
2019-05-21T05:54:27.471Z,11.40
2019-05-21T05:56:56.702Z,9.57
2019-05-21T05:59:26.006Z,8.87
2019-05-21T06:01:56.993Z,13.03
2019-05-21T06:04:26.316Z,11.57
2019-05-21T06:06:55.632Z,8.68
2019-05-21T06:09:24.956Z,19.82
2019-05-21T06:11:54.258Z,8.88
2019-05-21T06:14:23.526Z,9.23
2019-05-21T06:16:52.882Z,9.03
2019-05-21T06:19:22.153Z,10.38
2019-05-21T06:21:51.430Z,11.00
2019-05-21T06:24:20.744Z,11.28
2019-05-21T06:26:50.016Z,10.80
2019-05-21T06:29:19.375Z,8.75
2019-05-21T06:31:48.626Z,10.72
2019-05-21T06:34:17.912Z,16.90
2019-05-21T06:36:47.251Z,12.82
2019-05-21T06:39:17.881Z,15.65
2019-05-21T06:41:47.191Z,9.13
2019-05-21T06:44:16.500Z,11.60
2019-05-21T06:46:45.795Z,14.78
2019-05-21T06:49:15.361Z,8.65
2019-05-21T06:51:44.637Z,10.95
2019-05-21T06:54:14.006Z,9.00
2019-05-21T06:56:43.338Z,17.17
2019-05-21T06:59:12.601Z,10.33
2019-05-21T07:01:42.051Z,11.03
2019-05-21T07:04:11.312Z,10.60
2019-05-21T07:06:40.655Z,9.95
2019-05-21T07:09:09.958Z,24.90
2019-05-21T07:11:39.370Z,12.25
2019-05-21T07:14:08.949Z,14.73
2019-05-21T07:16:38.266Z,10.32
2019-05-21T07:19:08.661Z,10.40
2019-05-21T07:21:38.100Z,11.78
2019-05-21T07:24:07.534Z,9.75
2019-05-21T07:26:37.022Z,9.45
2019-05-21T07:29:06.455Z,7.00
2019-05-21T07:31:35.874Z,5.78
2019-05-21T07:34:05.166Z,8.60
2019-05-21T07:36:35.255Z,8.08
2019-05-21T07:39:06.042Z,7.97
2019-05-21T07:41:36.302Z,5.12
2019-05-21T07:44:05.646Z,6.08
2019-05-21T07:46:39.009Z,7.72
2019-05-21T07:49:05.968Z,9.00
2019-05-21T07:51:35.336Z,6.90
2019-05-21T07:54:04.609Z,8.53
2019-05-21T07:56:33.867Z,10.53
2019-05-21T07:59:03.137Z,4.57
2019-05-21T08:01:32.407Z,6.12
2019-05-21T08:04:01.742Z,6.42
2019-05-21T08:06:30.987Z,5.70
2019-05-21T08:09:12.600Z,8.73
2019-05-21T08:11:31.185Z,15.20
2019-05-21T08:14:01.063Z,6.60
2019-05-21T08:16:31.688Z,7.80
2019-05-21T08:19:01.218Z,7.40
2019-05-21T08:21:30.562Z,7.08
2019-05-21T08:24:01.087Z,5.20
2019-05-21T08:26:30.389Z,14.83
2019-05-21T08:28:59.715Z,7.00
2019-05-21T08:31:29.051Z,5.77
2019-05-21T08:33:58.363Z,4.87
2019-05-21T08:36:27.657Z,6.77
2019-05-21T08:38:56.965Z,4.20
2019-05-21T08:41:26.300Z,4.17
2019-05-21T08:43:55.602Z,5.07
2019-05-21T08:46:24.889Z,4.30
2019-05-21T08:49:00.358Z,3.93
2019-05-21T08:51:29.751Z,4.00
2019-05-21T08:53:59.286Z,5.50
2019-05-21T08:56:28.607Z,4.40
2019-05-21T08:58:58.989Z,4.93
2019-05-21T09:01:28.307Z,12.67
2019-05-21T09:03:57.614Z,5.80
2019-05-21T09:06:26.982Z,6.37
2019-05-21T09:08:56.266Z,10.07
2019-05-21T09:11:25.661Z,7.93
2019-05-21T09:13:55.070Z,7.70
2019-05-21T09:16:24.318Z,4.73
2019-05-21T09:18:53.702Z,3.70
2019-05-21T09:21:22.977Z,4.67
2019-05-21T09:23:52.470Z,3.87
2019-05-21T09:26:21.755Z,2.80
2019-05-21T09:28:51.055Z,3.37
2019-05-21T09:31:20.472Z,3.03
2019-05-21T09:33:49.735Z,2.97
2019-05-21T09:36:19.090Z,3.17
2019-05-21T09:38:48.352Z,2.43
2019-05-21T09:41:17.649Z,6.20
2019-05-21T09:43:47.002Z,3.17
2019-05-21T09:46:16.438Z,3.30
2019-05-21T09:48:45.711Z,4.63
2019-05-21T09:51:19.670Z,3.43
2019-05-21T09:53:46.011Z,3.30
2019-05-21T09:56:34.315Z,3.13
2019-05-21T09:59:22.616Z,3.70
2019-05-21T10:01:53.838Z,3.77
2019-05-21T10:04:23.146Z,4.57
2019-05-21T10:06:52.622Z,4.30
2019-05-21T10:09:22.141Z,3.20
2019-05-21T10:11:51.431Z,4.00
2019-05-21T10:14:20.836Z,3.57
2019-05-21T10:16:53.257Z,3.00
2019-05-21T10:19:22.624Z,3.20
2019-05-21T10:21:52.063Z,2.63
2019-05-21T10:24:21.330Z,3.63
2019-05-21T10:26:51.509Z,2.93
2019-05-21T10:29:20.772Z,6.17
2019-05-21T10:31:50.086Z,3.40
2019-05-21T10:34:19.366Z,3.90
2019-05-21T10:36:48.688Z,4.53
2019-05-21T10:39:18.124Z,3.57
2019-05-21T10:41:48.082Z,3.50
2019-05-21T10:44:17.498Z,2.77
2019-05-21T10:46:46.855Z,3.17
2019-05-21T10:49:16.198Z,4.33
2019-05-21T10:51:45.492Z,3.87
2019-05-21T10:54:15.180Z,2.50
2019-05-21T10:56:47.861Z,3.67
2019-05-21T10:59:15.420Z,4.30
2019-05-21T11:02:00.402Z,2.87
2019-05-21T11:04:37.236Z,2.73
2019-05-21T11:07:07.239Z,4.87
2019-05-21T11:09:36.550Z,3.17
2019-05-21T11:12:07.167Z,3.90
2019-05-21T11:14:36.438Z,4.50
2019-05-21T11:17:07.871Z,3.40
2019-05-21T11:19:37.223Z,10.37
2019-05-21T11:22:06.580Z,3.73
2019-05-21T11:24:35.928Z,2.37
2019-05-21T11:27:06.308Z,2.80
2019-05-21T11:29:36.234Z,2.50
2019-05-21T11:32:05.605Z,2.93
2019-05-21T11:34:34.924Z,4.00
2019-05-21T11:37:04.573Z,5.30
2019-05-21T11:39:34.015Z,4.63
2019-05-21T11:42:04.054Z,3.03
2019-05-21T11:44:33.371Z,2.93
2019-05-21T11:47:02.658Z,4.30
2019-05-21T11:49:32.060Z,2.37
2019-05-21T11:52:01.565Z,2.40
2019-05-21T11:54:31.306Z,3.13
2019-05-21T11:57:00.575Z,2.43
2019-05-21T11:59:30.243Z,3.73
2019-05-21T12:01:59.594Z,3.00
2019-05-21T12:04:28.888Z,2.40
2019-05-21T12:07:02.563Z,2.90
2019-05-21T12:09:30.734Z,2.67
2019-05-21T12:12:00.142Z,2.77
2019-05-21T12:14:29.420Z,2.40
2019-05-21T12:16:58.690Z,2.20
2019-05-21T12:19:27.985Z,2.40
2019-05-21T12:21:57.257Z,2.10
2019-05-21T12:24:27.599Z,2.53
2019-05-21T12:26:57.086Z,2.70
2019-05-21T12:29:27.371Z,2.77
2019-05-21T12:31:56.664Z,2.50
2019-05-21T12:34:25.999Z,2.80
2019-05-21T12:36:58.352Z,2.20
2019-05-21T12:39:27.605Z,2.80
2019-05-21T12:41:56.955Z,2.37
2019-05-21T12:44:26.486Z,2.53
2019-05-21T12:46:57.266Z,2.77
2019-05-21T12:49:26.511Z,3.13
2019-05-21T12:51:55.873Z,2.50
2019-05-21T12:54:25.203Z,7.43
2019-05-21T12:56:57.592Z,3.17
2019-05-21T12:59:26.874Z,2.47
2019-05-21T13:01:56.155Z,2.60
2019-05-21T13:04:25.536Z,2.20
2019-05-21T13:06:54.973Z,3.00
2019-05-21T13:09:32.894Z,2.77
2019-05-21T13:11:55.238Z,2.40
2019-05-21T13:14:24.610Z,2.70
2019-05-21T13:16:53.856Z,3.47
2019-05-21T13:19:23.228Z,3.90
2019-05-21T13:21:52.673Z,2.73
2019-05-21T13:24:22.514Z,3.03
2019-05-21T13:26:51.788Z,2.83
2019-05-21T13:29:21.135Z,4.47
2019-05-21T13:31:50.726Z,3.67
2019-05-21T13:34:20.368Z,3.13
2019-05-21T13:37:04.643Z,4.37
2019-05-21T13:39:53.380Z,3.33
2019-05-21T13:42:28.317Z,3.67
2019-05-21T13:46:57.313Z,4.23
2019-05-21T13:49:13.483Z,2.83
2019-05-21T13:51:44.312Z,2.93
2019-05-21T13:55:08.079Z,3.50
2019-05-21T13:58:16.429Z,4.23
2019-05-21T14:04:23.008Z,3.80
2019-05-21T14:10:14.253Z,3.50
2019-05-21T14:12:48.719Z,3.10
2019-05-21T14:15:34.958Z,2.97
2019-05-21T14:18:12.899Z,2.87
2019-05-21T14:20:42.231Z,2.50
2019-05-21T14:23:11.542Z,3.20
2019-05-21T14:25:40.850Z,2.80
2019-05-21T14:28:10.824Z,4.47
2019-05-21T14:30:40.485Z,3.20
2019-05-21T14:33:11.394Z,4.90
2019-05-21T14:35:41.357Z,4.47
2019-05-21T14:38:10.767Z,5.43
2019-05-21T14:40:40.347Z,3.57
2019-05-21T14:43:09.855Z,3.87
2019-05-21T14:45:39.242Z,4.33
2019-05-21T14:48:08.795Z,4.83
2019-05-21T14:50:38.099Z,5.83
2019-05-21T14:53:07.554Z,5.10
2019-05-21T14:55:36.943Z,7.90
2019-05-21T14:58:06.207Z,3.40
2019-05-21T15:00:37.199Z,7.13
2019-05-21T15:03:06.610Z,8.10
2019-05-21T15:05:36.348Z,4.70
2019-05-21T15:08:05.936Z,5.73
2019-05-21T15:10:47.804Z,7.23
2019-05-21T15:13:06.599Z,5.30
2019-05-21T15:15:36.427Z,5.20
2019-05-21T15:18:07.016Z,5.27
2019-05-21T15:20:55.110Z,6.37
2019-05-21T15:23:24.491Z,4.90
2019-05-21T15:25:53.853Z,6.27
2019-05-21T15:28:25.242Z,6.20
2019-05-21T15:30:54.645Z,4.70
2019-05-21T15:33:24.071Z,6.40
2019-05-21T15:35:53.430Z,6.90
2019-05-21T15:38:22.746Z,7.00
2019-05-21T15:41:09.725Z,6.07
2019-05-21T15:43:24.483Z,5.13
2019-05-21T15:45:53.778Z,7.13
2019-05-21T15:48:26.411Z,5.50
2019-05-21T15:50:54.060Z,4.80
2019-05-21T15:53:23.409Z,5.20
2019-05-21T15:55:52.753Z,5.50
2019-05-21T15:58:26.338Z,4.90
2019-05-21T16:00:53.190Z,4.63
2019-05-21T16:03:22.836Z,4.90
2019-05-21T16:05:52.946Z,7.60
2019-05-21T16:08:22.524Z,5.53
2019-05-21T16:10:51.934Z,5.50
2019-05-21T16:13:21.233Z,5.20
2019-05-21T16:15:50.543Z,6.77
2019-05-21T16:18:19.778Z,4.80
2019-05-21T16:20:49.106Z,6.50
2019-05-21T16:23:18.467Z,7.50
2019-05-21T16:25:49.178Z,4.53
2019-05-21T16:28:18.685Z,5.20
2019-05-21T16:30:48.082Z,4.97
2019-05-21T16:33:17.329Z,4.77
2019-05-21T16:35:46.774Z,4.90
2019-05-21T16:38:16.188Z,4.90
2019-05-21T16:40:45.510Z,4.60
2019-05-21T16:43:14.902Z,4.77
2019-05-21T16:45:44.202Z,4.60
2019-05-21T16:48:13.523Z,5.10
2019-05-21T16:50:42.982Z,5.90
2019-05-21T16:53:12.708Z,6.03
2019-05-21T16:55:41.978Z,5.50
2019-05-21T16:58:11.311Z,5.63
2019-05-21T17:00:40.720Z,6.47
2019-05-21T17:03:11.921Z,5.60
2019-05-21T17:05:41.331Z,6.70
2019-05-21T17:08:10.852Z,6.73
2019-05-21T17:10:40.994Z,4.80
2019-05-21T17:13:10.272Z,5.93
2019-05-21T17:15:39.565Z,4.80
2019-05-21T17:18:09.132Z,8.10
2019-05-21T17:20:38.541Z,7.37
2019-05-21T17:23:07.774Z,5.50
2019-05-21T17:25:37.104Z,6.30
2019-05-21T17:28:07.427Z,5.10
2019-05-21T17:30:37.439Z,6.10
2019-05-21T17:33:07.635Z,8.53
2019-05-21T17:35:37.139Z,5.77
2019-05-21T17:38:07.889Z,6.17
2019-05-21T17:40:37.304Z,5.73
2019-05-21T17:43:06.694Z,6.87
2019-05-21T17:45:36.110Z,5.50
2019-05-21T17:48:05.309Z,6.47
2019-05-21T17:50:34.614Z,5.87
2019-05-21T17:53:03.934Z,6.67
2019-05-21T17:55:33.278Z,5.97
2019-05-21T17:58:02.691Z,5.93
2019-05-21T18:00:45.641Z,5.23
2019-05-21T18:03:15.221Z,5.67
2019-05-21T18:05:45.286Z,5.93
2019-05-21T18:08:17.110Z,7.23
2019-05-21T18:10:46.067Z,6.17
2019-05-21T18:13:15.532Z,8.27
2019-05-21T18:15:44.923Z,7.23
2019-05-21T18:18:14.709Z,6.03
2019-05-21T18:20:45.308Z,6.47
2019-05-21T18:23:19.639Z,6.60
2019-05-21T18:25:49.261Z,5.57
2019-05-21T18:28:18.570Z,6.50
2019-05-21T18:30:48.226Z,5.83
2019-05-21T18:33:17.663Z,6.40
2019-05-21T18:35:47.082Z,5.47
2019-05-21T18:38:17.582Z,6.63
2019-05-21T18:40:48.071Z,5.53
2019-05-21T18:43:17.332Z,5.63
2019-05-21T18:45:46.669Z,6.40
2019-05-21T18:48:15.978Z,7.80
2019-05-21T18:50:45.275Z,5.27
2019-05-21T18:53:14.633Z,7.10
2019-05-21T18:55:44.024Z,6.20
2019-05-21T18:58:16.761Z,6.00
2019-05-21T19:00:44.599Z,6.33
2019-05-21T19:03:13.867Z,8.07
2019-05-21T19:05:43.377Z,6.27
2019-05-21T19:08:12.762Z,6.50
2019-05-21T19:10:42.091Z,7.17
2019-05-21T19:13:11.352Z,6.10
2019-05-21T19:15:41.814Z,6.03
2019-05-21T19:18:11.124Z,7.37
2019-05-21T19:20:40.647Z,7.30
2019-05-21T19:23:10.017Z,7.57
2019-05-21T19:25:39.398Z,9.93
2019-05-21T19:28:10.524Z,10.77
2019-05-21T19:30:39.862Z,10.03
2019-05-21T19:33:09.157Z,10.63
2019-05-21T19:35:39.877Z,8.03
2019-05-21T19:38:09.195Z,12.60
2019-05-21T19:40:38.599Z,8.73
2019-05-21T19:43:07.896Z,8.73
2019-05-21T19:45:37.438Z,7.97
2019-05-21T19:48:06.934Z,7.10
2019-05-21T19:50:37.928Z,7.03
2019-05-21T19:53:07.185Z,7.70
2019-05-21T19:55:37.343Z,9.37
2019-05-21T19:58:06.631Z,7.63
2019-05-21T20:00:40.649Z,6.70
2019-05-21T20:03:09.999Z,5.97
2019-05-21T20:05:39.495Z,4.20
2019-05-21T20:08:09.398Z,5.47
2019-05-21T20:10:39.671Z,5.27
2019-05-21T20:13:09.128Z,4.03
2019-05-21T20:15:41.966Z,5.13
2019-05-21T20:18:12.592Z,4.77
2019-05-21T20:20:43.059Z,3.73
2019-05-21T20:23:13.827Z,5.10
2019-05-21T20:25:55.907Z,5.10
2019-05-21T20:28:14.153Z,7.10
2019-05-21T20:30:44.790Z,5.93
2019-05-21T20:33:14.519Z,5.80
2019-05-21T20:35:44.937Z,6.93
2019-05-21T20:38:14.618Z,8.83
2019-05-21T20:40:44.165Z,5.40
2019-05-21T20:43:14.076Z,6.03
2019-05-21T20:45:46.017Z,8.50
2019-05-21T20:48:16.558Z,8.23
2019-05-21T20:50:46.359Z,8.20
2019-05-21T20:53:16.176Z,8.17
2019-05-21T20:55:47.321Z,6.03
2019-05-21T20:58:16.932Z,9.27
2019-05-21T21:00:48.882Z,7.03
2019-05-21T21:03:18.522Z,4.30
2019-05-21T21:05:48.356Z,4.23
2019-05-21T21:08:17.627Z,10.57
2019-05-21T21:10:46.934Z,3.90
2019-05-21T21:13:16.898Z,4.30
2019-05-21T21:15:46.898Z,4.50
2019-05-21T21:18:16.643Z,4.00
2019-05-21T21:20:46.126Z,3.87
2019-05-21T21:23:17.937Z,4.23
2019-05-21T21:25:49.658Z,5.03
2019-05-21T21:28:19.420Z,3.73
2019-05-21T21:30:50.237Z,5.43
2019-05-21T21:33:19.678Z,3.57
2019-05-21T21:35:49.155Z,4.07
2019-05-21T21:38:24.188Z,4.23
2019-05-21T21:40:54.465Z,5.60
2019-05-21T21:43:24.156Z,5.47
2019-05-21T21:45:53.658Z,5.00
2019-05-21T21:48:23.114Z,5.00
2019-05-21T21:50:53.151Z,5.73
2019-05-21T21:53:24.394Z,5.50
2019-05-21T21:55:53.697Z,6.17
2019-05-21T21:58:22.959Z,6.03
2019-05-21T22:01:20.227Z,6.23
2019-05-21T22:03:50.434Z,6.67
2019-05-21T22:06:21.378Z,5.93
2019-05-21T22:08:51.580Z,6.20
2019-05-21T22:11:21.668Z,6.77
2019-05-21T22:13:51.418Z,5.83
2019-05-21T22:16:22.187Z,6.00
2019-05-21T22:18:51.816Z,8.27
2019-05-21T22:21:22.266Z,8.10
2019-05-21T22:23:51.694Z,7.47
2019-05-21T22:26:22.956Z,9.13
2019-05-21T22:28:52.466Z,8.77
2019-05-21T22:31:21.819Z,10.10
2019-05-21T22:33:51.314Z,12.83
2019-05-21T22:36:20.951Z,13.17
2019-05-21T22:38:50.250Z,14.43
2019-05-21T22:41:19.623Z,18.83
2019-05-21T22:43:49.218Z,17.23
2019-05-21T22:46:18.942Z,16.67
2019-05-21T22:48:48.442Z,17.73
2019-05-21T22:51:17.815Z,21.83
2019-05-21T22:53:48.525Z,24.43
2019-05-21T22:56:17.842Z,24.47
2019-05-21T22:58:47.064Z,26.80
2019-05-21T23:01:16.487Z,29.10
2019-05-21T23:03:45.918Z,27.23
2019-05-21T23:06:16.824Z,25.80
2019-05-21T23:08:46.158Z,28.23
2019-05-21T23:11:15.490Z,31.87
2019-05-21T23:13:44.922Z,31.73
2019-05-21T23:16:14.387Z,28.17
2019-05-21T23:18:43.667Z,29.33
2019-05-21T23:21:14.438Z,29.53
2019-05-21T23:23:44.777Z,39.33
2019-05-21T23:26:14.675Z,40.90
2019-05-21T23:28:45.545Z,40.27
2019-05-21T23:31:15.390Z,35.63
2019-05-21T23:33:44.938Z,39.40
2019-05-21T23:36:14.717Z,43.33
2019-05-21T23:38:44.106Z,42.00
2019-05-21T23:41:14.515Z,43.57
2019-05-21T23:43:44.053Z,44.00
2019-05-21T23:46:15.303Z,43.70
2019-05-21T23:48:45.134Z,42.13
2019-05-21T23:51:14.597Z,41.93
2019-05-21T23:53:43.890Z,37.53
2019-05-21T23:56:13.183Z,42.40
2019-05-21T23:58:42.769Z,36.63
